Time;durP1;ratioP1;P1;durP2;ratioP2;P2;SDS_P1;SDS_P2;PMS_P1;PMS_P2;Temp;Humidity;BMP_temperature;BMP_pressure;BME280_temperature;BME280_humidity;BME280_pressure;Samples;Min_cycle;Max_cycle;Signal;HPM_P1;HPM_P2
2023/09/17 00:00:38;;;;;;;39.20;28.23;;;16.10;99.90;;;;;;5096679;28;20131;-67
2023/09/17 00:03:05;;;;;;;43.80;28.92;;;16.10;99.90;;;;;;5096955;28;20051;-67
2023/09/17 00:05:34;;;;;;;40.15;28.02;;;16.10;99.90;;;;;;5096467;28;20413;-67
2023/09/17 00:08:00;;;;;;;44.65;28.65;;;16.10;99.90;;;;;;5097546;28;20099;-67
2023/09/17 00:10:26;;;;;;;39.78;27.08;;;16.00;99.90;;;;;;5096480;28;20060;-67
2023/09/17 00:12:54;;;;;;;42.67;28.33;;;16.00;99.90;;;;;;5096824;28;20043;-67
2023/09/17 00:15:22;;;;;;;41.30;28.55;;;16.00;99.90;;;;;;5096256;28;20517;-67
2023/09/17 00:17:49;;;;;;;40.05;28.08;;;16.00;99.90;;;;;;5096737;28;20084;-67
2023/09/17 00:20:15;;;;;;;39.58;28.77;;;16.00;99.90;;;;;;5096319;28;20135;-67
2023/09/17 00:22:41;;;;;;;42.25;28.38;;;15.90;99.90;;;;;;5096681;28;20024;-67
2023/09/17 00:25:07;;;;;;;41.20;27.65;;;15.80;99.90;;;;;;5096178;28;20020;-67
2023/09/17 00:27:33;;;;;;;40.88;26.20;;;15.80;99.90;;;;;;5096561;28;20024;-67
2023/09/17 00:30:01;;;;;;;40.53;27.48;;;15.90;99.90;;;;;;5095956;28;20031;-67
2023/09/17 00:32:27;;;;;;;42.75;27.15;;;15.80;99.90;;;;;;5095158;28;20115;-67
2023/09/17 00:34:53;;;;;;;37.60;27.83;;;15.80;99.90;;;;;;5077763;28;20546;-67
2023/09/17 00:37:19;;;;;;;36.53;25.88;;;15.70;99.90;;;;;;5096537;28;20032;-67
2023/09/17 00:39:45;;;;;;;40.17;26.83;;;15.60;99.90;;;;;;5095921;28;20035;-67
2023/09/17 00:42:11;;;;;;;39.90;29.38;;;15.60;99.90;;;;;;5078165;28;20027;-67
2023/09/17 00:44:37;;;;;;;37.70;25.77;;;15.60;99.90;;;;;;5078141;28;20501;-67
2023/09/17 00:47:04;;;;;;;34.28;25.85;;;15.60;99.90;;;;;;5095533;28;20054;-67
2023/09/17 00:49:32;;;;;;;35.25;26.02;;;15.60;99.90;;;;;;5078162;28;20028;-67
2023/09/17 00:52:00;;;;;;;35.67;26.42;;;15.60;99.90;;;;;;5095864;28;20488;-67
2023/09/17 00:54:28;;;;;;;33.00;25.08;;;15.50;99.90;;;;;;5080635;28;20173;-67
2023/09/17 00:56:54;;;;;;;33.20;25.52;;;15.50;99.90;;;;;;5070509;28;20040;-67
2023/09/17 00:59:21;;;;;;;38.60;26.70;;;15.50;99.90;;;;;;5095529;28;20070;-67
2023/09/17 01:01:47;;;;;;;38.72;28.17;;;15.50;99.90;;;;;;5095425;28;20027;-67
2023/09/17 01:04:15;;;;;;;38.28;26.58;;;15.50;99.90;;;;;;5077678;28;20174;-67
2023/09/17 01:06:42;;;;;;;34.78;26.02;;;15.40;99.90;;;;;;5095337;28;20058;-67
2023/09/17 01:09:09;;;;;;;34.20;25.42;;;15.50;99.90;;;;;;5095674;28;20358;-67
2023/09/17 01:11:38;;;;;;;35.58;26.65;;;15.50;99.90;;;;;;5076994;28;20473;-67
2023/09/17 01:14:13;;;;;;;34.03;25.38;;;15.40;99.90;;;;;;5095923;28;20034;-67
2023/09/17 01:16:47;;;;;;;38.60;25.77;;;15.50;99.90;;;;;;5095229;28;20050;-67
2023/09/17 01:19:22;;;;;;;37.17;25.13;;;15.50;99.90;;;;;;5077317;28;20044;-67
2023/09/17 01:22:17;;;;;;;34.90;25.10;;;15.60;99.90;;;;;;5076628;28;20059;-67
2023/09/17 01:24:54;;;;;;;40.33;25.33;;;15.60;99.90;;;;;;5095484;28;20024;-66
2023/09/17 01:27:20;;;;;;;37.58;26.25;;;15.50;99.90;;;;;;5076766;28;20043;-67
2023/09/17 01:29:46;;;;;;;35.67;25.67;;;15.40;99.90;;;;;;5095188;28;20025;-67
2023/09/17 01:32:13;;;;;;;40.60;26.90;;;15.40;99.90;;;;;;5076829;28;20032;-66
2023/09/17 01:34:45;;;;;;;42.90;26.35;;;15.40;99.90;;;;;;5077055;28;20080;-66
2023/09/17 01:37:27;;;;;;;32.38;23.80;;;15.30;99.90;;;;;;5094631;28;20066;-66
2023/09/17 01:40:03;;;;;;;37.08;26.05;;;15.30;99.90;;;;;;5077034;28;20057;-67
2023/09/17 01:42:30;;;;;;;34.53;24.15;;;15.20;99.90;;;;;;5094744;28;20106;-67
2023/09/17 01:44:57;;;;;;;34.03;23.35;;;15.20;99.90;;;;;;5076870;28;20069;-67
2023/09/17 01:47:25;;;;;;;33.90;24.35;;;15.20;99.90;;;;;;5094761;28;20078;-67
2023/09/17 01:49:51;;;;;;;35.25;25.38;;;15.20;99.90;;;;;;5094969;28;20024;-67
2023/09/17 01:52:22;;;;;;;36.13;24.60;;;15.20;99.90;;;;;;5094645;28;20028;-67
2023/09/17 01:54:50;;;;;;;35.55;24.30;;;15.20;99.90;;;;;;5076503;28;20060;-67
2023/09/17 01:57:15;;;;;;;38.30;23.55;;;15.10;99.90;;;;;;5090595;28;20028;-67
2023/09/17 01:59:41;;;;;;;38.85;24.77;;;15.20;99.90;;;;;;5075736;28;20062;-67
2023/09/17 02:02:07;;;;;;;31.30;23.30;;;15.10;99.90;;;;;;5076267;28;20036;-67
2023/09/17 02:04:33;;;;;;;33.97;24.80;;;15.10;99.90;;;;;;5094698;28;20024;-66
2023/09/17 02:06:59;;;;;;;35.42;24.80;;;15.10;99.90;;;;;;5076439;28;20423;-67
2023/09/17 02:09:25;;;;;;;36.20;24.83;;;15.20;99.90;;;;;;5094506;28;20031;-67
2023/09/17 02:11:52;;;;;;;30.90;23.45;;;15.10;99.90;;;;;;5076304;28;20063;-67
2023/09/17 02:14:18;;;;;;;35.80;24.23;;;15.10;99.90;;;;;;5094208;28;20028;-66
2023/09/17 02:16:44;;;;;;;35.97;24.50;;;15.10;99.90;;;;;;5094838;28;20028;-67
2023/09/17 02:19:10;;;;;;;43.72;24.80;;;15.10;99.90;;;;;;5094164;28;20024;-67
2023/09/17 02:21:36;;;;;;;34.47;23.90;;;15.00;99.90;;;;;;5094481;28;20036;-66
2023/09/17 02:24:03;;;;;;;39.38;25.63;;;15.00;99.90;;;;;;5094230;28;20449;-67
2023/09/17 02:26:29;;;;;;;32.33;24.60;;;15.10;99.90;;;;;;5094384;28;20027;-66
2023/09/17 02:28:55;;;;;;;34.35;24.30;;;15.10;99.90;;;;;;5094063;28;20012;-66
2023/09/17 02:31:21;;;;;;;31.42;21.83;;;15.10;99.90;;;;;;5076564;28;20036;-66
2023/09/17 02:33:47;;;;;;;36.33;24.02;;;15.10;99.90;;;;;;5094054;28;20038;-66
2023/09/17 02:36:13;;;;;;;30.65;22.55;;;15.20;99.90;;;;;;5094477;28;20059;-66
2023/09/17 02:38:43;;;;;;;36.45;24.00;;;15.20;99.90;;;;;;5094653;28;20036;-67
2023/09/17 02:41:09;;;;;;;31.70;22.63;;;15.10;99.90;;;;;;5094193;28;20028;-67
2023/09/17 02:43:36;;;;;;;33.67;24.45;;;15.10;99.90;;;;;;5094102;28;20476;-67
2023/09/17 02:46:06;;;;;;;34.90;24.25;;;15.10;99.90;;;;;;5076297;28;20028;-67
2023/09/17 02:48:32;;;;;;;34.05;24.00;;;15.10;99.90;;;;;;5094132;28;20020;-66
2023/09/17 02:51:02;;;;;;;37.38;22.48;;;15.00;99.90;;;;;;5075737;28;20032;-66
2023/09/17 02:53:28;;;;;;;35.72;24.30;;;15.00;99.90;;;;;;5086998;28;20039;-66
2023/09/17 02:55:58;;;;;;;34.65;23.25;;;14.90;99.90;;;;;;5078339;28;20016;-67
2023/09/17 02:58:24;;;;;;;31.98;23.17;;;14.90;99.90;;;;;;5076096;28;20081;-67
2023/09/17 03:00:50;;;;;;;36.63;25.25;;;14.80;99.90;;;;;;5073665;28;20111;-66
2023/09/17 03:03:16;;;;;;;33.47;24.80;;;14.80;99.90;;;;;;5056092;28;20055;-67
2023/09/17 03:05:47;;;;;;;39.35;22.92;;;14.70;99.90;;;;;;5073673;28;20100;-67
2023/09/17 03:08:14;;;;;;;34.80;23.95;;;14.70;99.90;;;;;;5056123;28;20051;-67
2023/09/17 03:10:44;;;;;;;28.38;20.90;;;14.80;99.90;;;;;;5056650;28;20024;-67
2023/09/17 03:13:14;;;;;;;31.05;22.40;;;14.70;99.90;;;;;;5059864;28;20041;-67
2023/09/17 03:15:44;;;;;;;34.70;23.75;;;14.70;99.90;;;;;;5059245;28;20036;-67
2023/09/17 03:18:12;;;;;;;31.13;22.92;;;14.70;99.90;;;;;;5077535;28;20074;-67
2023/09/17 03:20:39;;;;;;;31.60;23.10;;;14.60;99.90;;;;;;5059358;28;20028;-67
2023/09/17 03:23:06;;;;;;;36.22;22.70;;;14.70;99.90;;;;;;5059392;28;20398;-67
2023/09/17 03:25:36;;;;;;;29.80;21.02;;;14.70;99.90;;;;;;5059171;28;20039;-67
2023/09/17 03:28:02;;;;;;;35.33;22.45;;;14.70;99.90;;;;;;5059532;28;20029;-67
2023/09/17 03:30:28;;;;;;;30.27;21.90;;;14.70;99.90;;;;;;5058943;28;20036;-67
2023/09/17 03:32:57;;;;;;;30.67;21.38;;;14.70;99.90;;;;;;5059532;28;20052;-66
2023/09/17 03:35:25;;;;;;;32.13;23.15;;;14.80;99.90;;;;;;5076944;28;20064;-67
2023/09/17 03:37:51;;;;;;;29.73;21.75;;;14.80;99.90;;;;;;5059230;28;20293;-66
2023/09/17 03:40:17;;;;;;;35.65;23.10;;;14.90;99.90;;;;;;5058945;28;20032;-66
2023/09/17 03:42:43;;;;;;;29.92;22.52;;;14.90;99.90;;;;;;5059359;28;20024;-67
2023/09/17 03:45:13;;;;;;;30.92;23.55;;;14.80;99.90;;;;;;5058987;28;20052;-66
2023/09/17 03:47:40;;;;;;;36.53;23.80;;;14.70;99.90;;;;;;5058700;28;20028;-66
2023/09/17 03:50:08;;;;;;;34.67;23.42;;;14.70;99.90;;;;;;5059202;28;20029;-66
2023/09/17 03:52:36;;;;;;;35.88;23.20;;;14.70;99.90;;;;;;5058527;28;20025;-66
2023/09/17 03:55:05;;;;;;;34.85;24.45;;;14.60;99.90;;;;;;5055656;28;20072;-66
2023/09/17 03:57:36;;;;;;;38.53;24.23;;;14.60;99.90;;;;;;5055089;28;20029;-67
2023/09/17 04:00:06;;;;;;;34.60;23.25;;;14.60;99.90;;;;;;5052140;28;20072;-66
2023/09/17 04:02:39;;;;;;;34.05;22.85;;;14.60;99.90;;;;;;5076392;28;20066;-67
2023/09/17 04:05:14;;;;;;;33.83;22.95;;;14.50;99.90;;;;;;5058849;28;20025;-67
2023/09/17 04:07:46;;;;;;;40.58;21.58;;;14.40;99.90;;;;;;5076308;28;20055;-67
2023/09/17 04:10:15;;;;;;;31.00;22.27;;;14.50;99.90;;;;;;5076754;28;20486;-66
2023/09/17 04:12:42;;;;;;;31.77;21.35;;;14.40;99.90;;;;;;5076346;28;20059;-66
2023/09/17 04:15:13;;;;;;;35.17;21.38;;;14.40;99.90;;;;;;5076513;28;20024;-66
2023/09/17 04:17:39;;;;;;;33.20;21.38;;;14.40;99.90;;;;;;5076348;28;20025;-66
2023/09/17 04:20:11;;;;;;;32.45;21.63;;;14.40;99.90;;;;;;5058444;28;20036;-66
2023/09/17 04:22:37;;;;;;;32.33;21.88;;;14.50;99.90;;;;;;5057103;28;20033;-66
2023/09/17 04:25:06;;;;;;;30.67;22.98;;;14.50;99.90;;;;;;5058548;28;20031;-66
2023/09/17 04:27:34;;;;;;;30.48;22.27;;;14.50;99.90;;;;;;5075944;28;20032;-66
2023/09/17 04:30:00;;;;;;;32.13;23.17;;;14.50;99.90;;;;;;5058464;28;20040;-67
2023/09/17 04:32:26;;;;;;;31.92;22.17;;;14.50;99.90;;;;;;5057990;28;20032;-67
2023/09/17 04:34:52;;;;;;;30.85;23.38;;;14.50;99.90;;;;;;5058161;28;20064;-66
2023/09/17 04:37:19;;;;;;;31.42;22.33;;;14.60;99.90;;;;;;5057868;28;20032;-67
2023/09/17 04:39:49;;;;;;;35.35;24.80;;;14.60;99.90;;;;;;5058262;28;20047;-66
2023/09/17 04:42:17;;;;;;;35.45;24.10;;;14.70;99.90;;;;;;5057504;28;20136;-66
2023/09/17 04:44:43;;;;;;;37.33;23.58;;;14.70;99.90;;;;;;5058189;28;20373;-67
2023/09/17 04:47:09;;;;;;;38.30;24.35;;;14.80;99.90;;;;;;5058032;28;20032;-66
2023/09/17 04:49:37;;;;;;;34.13;23.65;;;14.80;99.90;;;;;;5057585;28;20127;-66
2023/09/17 04:52:03;;;;;;;34.80;25.25;;;14.80;99.90;;;;;;5057946;28;20055;-66
2023/09/17 04:54:30;;;;;;;38.35;25.08;;;14.90;99.90;;;;;;5073034;28;20062;-66
2023/09/17 04:56:56;;;;;;;34.22;24.80;;;14.90;99.90;;;;;;5096323;28;20036;-66
2023/09/17 04:59:22;;;;;;;39.72;23.20;;;14.90;99.90;;;;;;5077218;28;20154;-66
2023/09/17 05:01:48;;;;;;;37.10;24.08;;;14.90;99.90;;;;;;5094519;28;20510;-66
2023/09/17 05:04:15;;;;;;;39.35;26.08;;;15.00;99.90;;;;;;5077173;28;20108;-66
2023/09/17 05:06:44;;;;;;;36.13;24.27;;;15.00;99.90;;;;;;5077430;28;20032;-66
2023/09/17 05:09:10;;;;;;;42.40;26.35;;;15.10;99.90;;;;;;5077088;28;20028;-66
2023/09/17 05:11:37;;;;;;;35.33;25.45;;;15.20;99.90;;;;;;5077388;28;20064;-66
2023/09/17 05:14:03;;;;;;;40.92;25.15;;;15.20;99.90;;;;;;5077213;28;20028;-66
2023/09/17 05:16:29;;;;;;;34.83;24.17;;;15.30;99.90;;;;;;5077422;28;20486;-67
2023/09/17 05:18:59;;;;;;;;;;;15.30;99.90;;;;;;5077459;28;20028;-67
2023/09/17 05:21:25;;;;;;;36.47;24.38;;;15.20;99.90;;;;;;5077458;28;19912;-67
2023/09/17 05:23:52;;;;;;;34.80;24.45;;;15.30;99.90;;;;;;5076780;28;20087;-67
2023/09/17 05:26:18;;;;;;;40.40;25.38;;;15.30;99.90;;;;;;5077213;28;20027;-67
2023/09/17 05:28:44;;;;;;;40.88;28.05;;;15.40;99.90;;;;;;5076987;28;20027;-67
2023/09/17 05:31:10;;;;;;;44.75;27.73;;;15.40;99.90;;;;;;5095161;28;20115;-67
2023/09/17 05:33:36;;;;;;;42.05;27.35;;;15.50;99.90;;;;;;5077140;28;20497;-67
2023/09/17 05:36:03;;;;;;;36.92;24.83;;;15.60;99.90;;;;;;5076914;28;20028;-67
2023/09/17 05:38:29;;;;;;;33.55;24.27;;;15.80;99.90;;;;;;5095230;28;20152;-67
2023/09/17 05:40:56;;;;;;;34.60;24.77;;;15.90;99.90;;;;;;5076594;28;20036;-67
2023/09/17 05:43:24;;;;;;;32.95;25.05;;;15.90;99.90;;;;;;5077152;28;20031;-67
2023/09/17 05:45:56;;;;;;;36.70;24.60;;;16.10;99.90;;;;;;5076454;28;20030;-67
2023/09/17 05:48:23;;;;;;;38.05;25.08;;;16.30;99.90;;;;;;5076976;28;20032;-67
2023/09/17 05:50:50;;;;;;;36.53;24.02;;;16.40;99.90;;;;;;5076466;28;20117;-67
2023/09/17 05:53:17;;;;;;;37.22;24.08;;;16.50;99.90;;;;;;5076731;28;20024;-67
2023/09/17 05:55:43;;;;;;;46.90;28.35;;;16.60;99.90;;;;;;5076337;28;20436;-67
2023/09/17 05:58:09;;;;;;;44.78;28.42;;;16.70;99.90;;;;;;5076728;28;20405;-66
2023/09/17 06:00:35;;;;;;;43.78;27.90;;;16.70;99.90;;;;;;5076184;28;20052;-66
2023/09/17 06:03:01;;;;;;;45.42;27.50;;;16.90;99.90;;;;;;5076631;28;20070;-67
2023/09/17 06:05:29;;;;;;;44.15;26.50;;;16.90;99.90;;;;;;5094312;28;20241;-67
2023/09/17 06:07:55;;;;;;;44.47;28.65;;;17.10;99.90;;;;;;5076861;28;20224;-67
2023/09/17 06:10:24;;;;;;;49.33;29.70;;;17.10;99.90;;;;;;5076248;28;20032;-67
2023/09/17 06:12:50;;;;;;;65.55;31.67;;;17.30;99.90;;;;;;5094672;28;20031;-67
2023/09/17 06:15:17;;;;;;;63.65;30.73;;;17.30;99.90;;;;;;5075980;28;20041;-67
2023/09/17 06:17:43;;;;;;;77.32;33.45;;;17.30;99.90;;;;;;5076629;28;20032;-67
2023/09/17 06:20:09;;;;;;;87.25;33.35;;;17.40;99.90;;;;;;5094295;28;20035;-67
2023/09/17 06:22:36;;;;;;;96.93;34.13;;;17.40;99.90;;;;;;5094541;28;20032;-67
2023/09/17 06:25:03;;;;;;;60.38;32.17;;;17.40;99.90;;;;;;5076488;28;20055;-67
2023/09/17 06:27:33;;;;;;;71.88;33.88;;;17.30;99.90;;;;;;5076032;28;20087;-67
2023/09/17 06:29:59;;;;;;;74.53;32.20;;;17.20;99.90;;;;;;5076544;28;20546;-67
2023/09/17 06:32:26;;;;;;;62.20;32.75;;;17.30;99.90;;;;;;5076126;28;20059;-67
2023/09/17 06:34:52;;;;;;;61.97;33.08;;;17.50;99.90;;;;;;5076335;28;20039;-67
2023/09/17 06:37:18;;;;;;;67.75;32.95;;;17.50;99.90;;;;;;5076042;28;20028;-67
2023/09/17 06:39:46;;;;;;;57.00;34.03;;;17.60;99.90;;;;;;5076453;28;20300;-67
2023/09/17 06:42:14;;;;;;;67.97;34.33;;;17.70;99.90;;;;;;5075805;28;20031;-67
2023/09/17 06:44:40;;;;;;;60.38;35.33;;;17.70;99.90;;;;;;5094233;28;20031;-67
2023/09/17 06:47:06;;;;;;;61.83;33.47;;;17.70;99.90;;;;;;5097541;28;20470;-67
2023/09/17 06:49:32;;;;;;;61.53;32.60;;;17.80;99.90;;;;;;5098489;28;20030;-67
2023/09/17 06:51:57;;;;;;;58.75;33.40;;;18.10;99.90;;;;;;5098106;28;20030;-67
2023/09/17 06:54:23;;;;;;;55.67;30.70;;;18.00;99.90;;;;;;5083386;28;20043;-67
2023/09/17 06:56:49;;;;;;;53.58;31.45;;;18.20;99.90;;;;;;5090240;28;20469;-67
2023/09/17 06:59:15;;;;;;;51.38;31.35;;;18.30;99.90;;;;;;5098282;28;20052;-67
2023/09/17 07:01:43;;;;;;;53.10;32.05;;;18.50;99.90;;;;;;5097824;28;20040;-67
2023/09/17 07:04:09;;;;;;;54.10;30.95;;;18.80;99.90;;;;;;5098101;28;20100;-67
2023/09/17 07:06:35;;;;;;;53.97;31.00;;;19.00;99.90;;;;;;5097827;28;20027;-67
2023/09/17 07:09:01;;;;;;;72.25;30.05;;;19.30;99.90;;;;;;5098378;28;20031;-67
2023/09/17 07:11:27;;;;;;;63.42;31.42;;;19.70;99.90;;;;;;5098050;28;20460;-66
2023/09/17 07:13:53;;;;;;;52.10;31.60;;;20.00;99.90;;;;;;5097874;28;20036;-67
2023/09/17 07:16:20;;;;;;;59.97;31.52;;;20.10;99.90;;;;;;5097977;28;20035;-67
2023/09/17 07:18:46;;;;;;;51.95;31.02;;;20.40;99.90;;;;;;5097429;28;20028;-67
2023/09/17 07:21:12;;;;;;;52.25;30.95;;;20.90;99.90;;;;;;5097921;28;20024;-67
2023/09/17 07:23:38;;;;;;;52.03;29.33;;;21.30;99.90;;;;;;5097458;28;20107;-67
2023/09/17 07:26:06;;;;;;;51.85;29.88;;;21.60;99.90;;;;;;5097580;28;20544;-67
2023/09/17 07:28:32;;;;;;;53.65;28.88;;;22.00;99.90;;;;;;5097657;28;20024;-67
2023/09/17 07:30:58;;;;;;;47.25;29.38;;;22.40;99.90;;;;;;5097590;28;20055;-67
2023/09/17 07:33:24;;;;;;;53.80;29.92;;;22.60;99.90;;;;;;5097561;28;20059;-67
2023/09/17 07:35:50;;;;;;;48.38;28.48;;;23.00;99.90;;;;;;5097670;28;20406;-67
2023/09/17 07:38:16;;;;;;;48.10;27.92;;;23.50;98.90;;;;;;5097251;28;20024;-67
2023/09/17 07:40:42;;;;;;;39.80;25.23;;;24.00;98.50;;;;;;5097666;28;20016;-67
2023/09/17 07:43:08;;;;;;;46.65;25.02;;;24.40;96.00;;;;;;5097103;28;20040;-68
2023/09/17 07:45:34;;;;;;;44.70;26.60;;;24.70;95.30;;;;;;5097442;28;20073;-68
2023/09/17 07:48:03;;;;;;;39.85;27.15;;;24.90;94.00;;;;;;5096948;28;20028;-68
2023/09/17 07:50:29;;;;;;;37.88;25.27;;;25.10;92.80;;;;;;5097385;28;20024;-68
2023/09/17 07:52:55;;;;;;;38.33;25.33;;;24.80;93.80;;;;;;5094492;28;20027;-68
2023/09/17 07:55:21;;;;;;;34.13;24.10;;;25.50;92.80;;;;;;5076940;28;20112;-68
2023/09/17 07:57:47;;;;;;;34.33;23.75;;;26.00;91.50;;;;;;5095985;28;20101;-67
2023/09/17 08:00:15;;;;;;;45.30;25.25;;;26.20;90.70;;;;;;5096685;28;20401;-68
2023/09/17 08:02:44;;;;;;;38.35;24.67;;;26.40;88.10;;;;;;5096884;28;20058;-68
2023/09/17 08:05:10;;;;;;;34.20;22.13;;;26.70;85.10;;;;;;5096771;28;20073;-68
2023/09/17 08:07:37;;;;;;;33.13;21.25;;;26.90;84.50;;;;;;5096926;28;20498;-68
2023/09/17 08:10:03;;;;;;;34.00;20.98;;;27.10;82.00;;;;;;5096513;28;20039;-68
2023/09/17 08:12:31;;;;;;;33.35;23.13;;;27.00;81.40;;;;;;5096901;28;20042;-68
2023/09/17 08:14:57;;;;;;;31.48;22.50;;;27.30;84.20;;;;;;5096469;28;20032;-68
2023/09/17 08:17:23;;;;;;;30.27;20.95;;;27.40;80.10;;;;;;5096862;28;20096;-68
2023/09/17 08:19:49;;;;;;;29.92;21.95;;;27.10;80.40;;;;;;5096398;28;20362;-69
2023/09/17 08:22:15;;;;;;;32.45;22.08;;;27.10;78.50;;;;;;5096636;28;20031;-69
2023/09/17 08:24:41;;;;;;;32.95;23.23;;;27.20;78.30;;;;;;5096423;28;20024;-69
2023/09/17 08:27:07;;;;;;;30.60;22.85;;;27.30;77.10;;;;;;5096539;28;20034;-68
2023/09/17 08:29:34;;;;;;;32.67;21.70;;;27.90;77.20;;;;;;5096011;28;20036;-69
2023/09/17 08:32:00;;;;;;;31.27;22.33;;;28.40;75.90;;;;;;5097013;28;20039;-68
2023/09/17 08:34:26;;;;;;;33.22;23.25;;;28.90;71.90;;;;;;5096477;28;20661;-69
2023/09/17 08:36:53;;;;;;;30.35;21.95;;;29.00;70.30;;;;;;5096381;28;20105;-68
2023/09/17 08:39:22;;;;;;;32.97;22.50;;;29.20;71.10;;;;;;5096525;28;20431;-69
2023/09/17 08:41:48;;;;;;;33.20;22.88;;;29.50;66.50;;;;;;5096334;28;20533;-69
2023/09/17 08:44:17;;;;;;;33.75;24.48;;;29.10;67.20;;;;;;5096299;28;20035;-69
2023/09/17 08:46:44;;;;;;;29.75;22.08;;;29.50;67.60;;;;;;5095890;28;20491;-69
2023/09/17 08:49:10;;;;;;;24.85;19.33;;;30.00;63.90;;;;;;5096304;28;20024;-69
2023/09/17 08:51:40;;;;;;;30.90;22.23;;;30.20;65.50;;;;;;5077612;28;20032;-69
2023/09/17 08:54:19;;;;;;;26.70;20.47;;;31.00;61.00;;;;;;5083522;28;20474;-69
2023/09/17 08:56:46;;;;;;;31.27;21.35;;;31.00;61.10;;;;;;5087478;28;20020;-69
2023/09/17 08:59:25;;;;;;;31.88;21.88;;;31.10;59.70;;;;;;5095727;28;20052;-69
2023/09/17 09:01:53;;;;;;;29.67;21.35;;;31.30;56.50;;;;;;5095524;28;20035;-69
2023/09/17 09:04:22;;;;;;;31.50;22.35;;;30.90;57.20;;;;;;5095845;28;20025;-69
2023/09/17 09:06:48;;;;;;;30.08;22.33;;;31.10;55.00;;;;;;5095161;28;20023;-69
2023/09/17 09:09:16;;;;;;;34.83;22.48;;;31.10;54.90;;;;;;5095721;28;20035;-69
2023/09/17 09:11:42;;;;;;;31.00;22.25;;;31.20;54.30;;;;;;5095329;28;20370;-69
2023/09/17 09:14:09;;;;;;;29.35;22.13;;;31.30;53.30;;;;;;5095653;28;20050;-70
2023/09/17 09:16:37;;;;;;;29.75;21.10;;;31.00;54.60;;;;;;5095422;28;20435;-69
2023/09/17 09:19:04;;;;;;;29.23;22.30;;;31.40;53.60;;;;;;5095529;28;20072;-70
2023/09/17 09:21:30;;;;;;;35.15;23.70;;;30.20;54.70;;;;;;5095112;28;20035;-69
2023/09/17 09:23:59;;;;;;;34.40;23.05;;;30.50;56.70;;;;;;5095756;28;20446;-69
2023/09/17 09:26:38;;;;;;;27.38;21.42;;;30.70;55.40;;;;;;5095230;28;20024;-70
2023/09/17 09:29:08;;;;;;;28.30;21.30;;;31.10;53.60;;;;;;5095430;28;20020;-69
2023/09/17 09:31:35;;;;;;;29.95;21.85;;;31.90;53.60;;;;;;5095079;28;20261;-69
2023/09/17 09:34:02;;;;;;;25.60;20.75;;;31.80;50.40;;;;;;5095149;28;20577;-70
2023/09/17 09:36:33;;;;;;;29.90;21.85;;;31.70;50.80;;;;;;5094970;28;20043;-70
2023/09/17 09:39:00;;;;;;;28.23;20.77;;;31.00;51.90;;;;;;5095245;28;20056;-70
2023/09/17 09:41:29;;;;;;;34.15;24.10;;;30.10;51.90;;;;;;5094649;28;20679;-70
2023/09/17 09:43:56;;;;;;;27.02;19.52;;;30.20;53.60;;;;;;5095121;28;20111;-69
2023/09/17 09:46:26;;;;;;;30.00;20.52;;;30.90;52.40;;;;;;5095075;28;20051;-70
2023/09/17 09:48:52;;;;;;;27.77;19.70;;;31.20;51.20;;;;;;5094790;28;20059;-70
2023/09/17 09:51:21;;;;;;;28.65;19.50;;;30.70;50.90;;;;;;5095120;28;20082;-70
2023/09/17 09:53:48;;;;;;;29.13;20.00;;;30.70;50.90;;;;;;5084697;28;20028;-70
2023/09/17 09:56:15;;;;;;;25.80;16.88;;;31.50;52.20;;;;;;5082626;28;20054;-69
2023/09/17 09:58:41;;;;;;;23.15;17.45;;;31.70;50.30;;;;;;5094453;28;20450;-69
2023/09/17 10:01:07;;;;;;;24.35;17.30;;;31.90;48.40;;;;;;5094732;28;20056;-69
2023/09/17 10:03:34;;;;;;;20.95;16.15;;;32.50;47.50;;;;;;5094425;28;20069;-70
2023/09/17 10:06:06;;;;;;;20.92;15.70;;;32.30;47.40;;;;;;5094951;28;20042;-70
2023/09/17 10:08:42;;;;;;;21.80;16.17;;;32.30;45.70;;;;;;5094242;28;20032;-70
2023/09/17 10:11:08;;;;;;;21.42;16.23;;;32.00;46.60;;;;;;5094547;28;20046;-69
2023/09/17 10:13:34;;;;;;;21.00;16.15;;;32.50;45.90;;;;;;5094157;28;20060;-70
2023/09/17 10:16:02;;;;;;;22.23;15.55;;;32.80;45.10;;;;;;5094909;28;20028;-70
2023/09/17 10:18:31;;;;;;;19.77;14.55;;;32.90;44.30;;;;;;5094428;28;20106;-70
2023/09/17 10:20:58;;;;;;;22.63;15.25;;;31.80;46.70;;;;;;5093949;28;20389;-69
2023/09/17 10:23:26;;;;;;;19.75;15.27;;;32.40;45.40;;;;;;5094323;28;20024;-70
2023/09/17 10:25:55;;;;;;;20.00;15.18;;;31.60;45.20;;;;;;5094377;28;20424;-70
2023/09/17 10:28:22;;;;;;;20.40;14.88;;;31.50;47.10;;;;;;5094330;28;20093;-69
2023/09/17 10:30:51;;;;;;;24.10;14.15;;;32.40;44.70;;;;;;5094521;28;20481;-70
2023/09/17 10:33:19;;;;;;;19.05;14.32;;;32.40;44.00;;;;;;5094167;28;20028;-70
2023/09/17 10:35:45;;;;;;;20.10;13.95;;;32.60;42.30;;;;;;5094927;28;20028;-69
2023/09/17 10:38:14;;;;;;;18.50;13.45;;;32.20;42.70;;;;;;5094134;28;20228;-69
2023/09/17 10:40:41;;;;;;;23.40;15.50;;;31.70;43.60;;;;;;5094541;28;20028;-69
2023/09/17 10:43:07;;;;;;;20.10;14.38;;;32.20;44.00;;;;;;5094103;28;20084;-70
2023/09/17 10:45:39;;;;;;;18.52;14.32;;;32.10;42.60;;;;;;5094047;28;20020;-70
2023/09/17 10:48:08;;;;;;;21.08;14.43;;;31.80;43.20;;;;;;5094474;28;20020;-70
2023/09/17 10:50:35;;;;;;;22.08;13.27;;;31.60;44.00;;;;;;5093881;28;20040;-69
2023/09/17 10:53:01;;;;;;;20.60;13.68;;;31.60;44.60;;;;;;5090476;28;20029;-70
2023/09/17 10:55:33;;;;;;;20.00;13.50;;;31.30;43.00;;;;;;5074742;28;20025;-70
2023/09/17 10:58:12;;;;;;;18.73;13.20;;;32.00;43.80;;;;;;5094887;28;20020;-70
2023/09/17 11:00:42;;;;;;;14.85;11.82;;;32.20;41.00;;;;;;5093754;28;20059;-70
2023/09/17 11:03:11;;;;;;;20.77;12.77;;;32.00;40.00;;;;;;5094372;28;20040;-70
2023/09/17 11:05:38;;;;;;;19.73;11.82;;;32.20;40.80;;;;;;5093851;28;20124;-70
2023/09/17 11:08:05;;;;;;;19.08;12.52;;;33.50;42.60;;;;;;5094344;28;20043;-70
2023/09/17 11:10:31;;;;;;;19.17;11.88;;;34.00;38.20;;;;;;5093868;28;20028;-69
2023/09/17 11:12:58;;;;;;;22.15;12.45;;;34.20;35.20;;;;;;5094029;28;20558;-70
2023/09/17 11:15:24;;;;;;;18.40;12.82;;;34.10;34.60;;;;;;5093602;28;20024;-69
2023/09/17 11:17:56;;;;;;;18.10;13.05;;;34.30;34.90;;;;;;5094048;28;20031;-70
2023/09/17 11:20:22;;;;;;;20.02;13.25;;;34.50;35.60;;;;;;5093651;28;20495;-69
2023/09/17 11:22:52;;;;;;;20.08;11.55;;;34.30;30.70;;;;;;5094167;28;20090;-69
2023/09/17 11:25:34;;;;;;;22.23;12.15;;;33.10;30.00;;;;;;5093827;28;20020;-68
2023/09/17 11:28:10;;;;;;;19.48;11.32;;;32.70;32.80;;;;;;5093889;28;20034;-70
2023/09/17 11:30:57;;;;;;;18.15;11.52;;;33.40;32.40;;;;;;5093517;28;20024;-69
2023/09/17 11:33:24;;;;;;;23.02;11.95;;;33.80;31.70;;;;;;5097569;28;20057;-70
2023/09/17 11:35:50;;;;;;;22.08;14.02;;;33.70;30.00;;;;;;5097227;28;20036;-70
2023/09/17 11:38:16;;;;;;;24.75;12.82;;;34.20;31.80;;;;;;5097744;28;20437;-69
2023/09/17 11:40:43;;;;;;;23.42;14.73;;;34.50;30.00;;;;;;5097442;28;20036;-70
2023/09/17 11:43:11;;;;;;;25.38;14.48;;;34.90;30.00;;;;;;5097515;28;20241;-70
2023/09/17 11:45:39;;;;;;;21.20;13.80;;;35.00;29.50;;;;;;5097210;28;20020;-70
2023/09/17 11:48:08;;;;;;;22.45;14.15;;;35.40;29.10;;;;;;5097404;28;20028;-70
2023/09/17 11:50:34;;;;;;;19.23;12.80;;;35.60;29.70;;;;;;5096901;28;20020;-69
2023/09/17 11:53:06;;;;;;;20.63;12.75;;;35.40;28.70;;;;;;5094063;28;20043;-70
2023/09/17 11:55:34;;;;;;;24.40;14.50;;;35.30;29.40;;;;;;5078567;28;20029;-70
2023/09/17 11:58:18;;;;;;;22.90;15.18;;;34.30;30.00;;;;;;5097243;28;20028;-70
2023/09/17 12:00:45;;;;;;;20.30;13.50;;;34.80;28.70;;;;;;5096712;28;20059;-69
2023/09/17 12:03:16;;;;;;;20.20;12.60;;;34.90;28.90;;;;;;5096980;28;20546;-70
2023/09/17 12:05:41;;;;;;;20.63;13.05;;;35.20;28.50;;;;;;5096826;28;20055;-69
2023/09/17 12:08:08;;;;;;;20.63;13.32;;;35.20;28.50;;;;;;5096648;28;20028;-69
2023/09/17 12:10:37;;;;;;;24.25;13.07;;;34.50;28.60;;;;;;5096919;28;20048;-69
2023/09/17 12:13:06;;;;;;;27.50;13.63;;;34.30;29.20;;;;;;5096299;28;20042;-69
2023/09/17 12:15:33;;;;;;;26.30;14.73;;;34.30;29.10;;;;;;5096781;28;20070;-69
2023/09/17 12:18:00;;;;;;;29.05;15.20;;;34.20;30.20;;;;;;5096472;28;20095;-69
2023/09/17 12:26:24;;;;;;;22.73;14.18;;;34.20;30.60;;;;;;5096501;28;20363;-69
2023/09/17 12:28:50;;;;;;;23.60;15.10;;;34.30;29.50;;;;;;5096388;28;20028;-69
2023/09/17 12:31:16;;;;;;;26.42;15.30;;;34.50;29.90;;;;;;5096535;28;20051;-69
2023/09/17 12:33:43;;;;;;;28.10;14.57;;;34.50;29.50;;;;;;5096077;28;20032;-68
2023/09/17 12:36:11;;;;;;;26.67;16.05;;;34.70;29.00;;;;;;5096456;28;20035;-70